TimeCDT,TemperatureF,Dew PointF,Humidity,Sea Level PressureIn,VisibilityMPH,Wind Direction,Wind SpeedMPH,Gust SpeedMPH,PrecipitationIn,Events,Conditions,WindDirDegrees,DateUTC
12:15 AM,57.2,53.6,88,30.01,10.0,Calm,Calm,-,N/A,,Clear,0,2013-09-24 05:15:00
12:35 AM,55.4,53.6,94,30.01,10.0,Calm,Calm,-,N/A,,Clear,0,2013-09-24 05:35:00
12:55 AM,55.4,53.6,94,30.01,10.0,Calm,Calm,-,N/A,,Clear,0,2013-09-24 05:55:00
1:15 AM,57.2,55.4,94,30.01,10.0,Calm,Calm,-,N/A,,Clear,0,2013-09-24 06:15:00
1:35 AM,57.2,55.4,94,30.01,10.0,Calm,Calm,-,N/A,,Clear,0,2013-09-24 06:35:00
1:55 AM,57.2,55.4,94,30.01,10.0,Calm,Calm,-,N/A,,Clear,0,2013-09-24 06:55:00
2:35 AM,60.8,57.2,88,30.01,10.0,SE,3.5,-,N/A,,Clear,130,2013-09-24 07:35:00
2:55 AM,60.8,57.2,88,30.01,10.0,Calm,Calm,-,N/A,,Clear,0,2013-09-24 07:55:00
3:15 AM,57.2,53.6,88,30.01,10.0,SE,4.6,-,N/A,,Clear,130,2013-09-24 08:15:00
3:35 AM,60.8,57.2,88,30.01,10.0,SE,3.5,-,N/A,,Clear,140,2013-09-24 08:35:00
3:55 AM,60.8,57.2,88,30.01,10.0,SE,3.5,-,N/A,,Clear,130,2013-09-24 08:55:00
4:35 AM,60.8,55.4,82,30.01,10.0,Calm,Calm,-,N/A,,Clear,0,2013-09-24 09:35:00
4:55 AM,60.8,55.4,82,30.01,10.0,SE,3.5,-,N/A,,Clear,140,2013-09-24 09:55:00
5:15 AM,60.8,55.4,82,30.02,10.0,Calm,Calm,-,N/A,,Clear,0,2013-09-24 10:15:00
5:35 AM,60.8,55.4,82,30.02,10.0,Calm,Calm,-,N/A,,Clear,0,2013-09-24 10:35:00
5:55 AM,57.2,53.6,88,30.03,10.0,Calm,Calm,-,N/A,,Clear,0,2013-09-24 10:55:00
6:15 AM,55.4,51.8,88,30.03,10.0,Calm,Calm,-,N/A,,Clear,0,2013-09-24 11:15:00
6:35 AM,55.4,53.6,94,30.03,10.0,Calm,Calm,-,N/A,,Clear,0,2013-09-24 11:35:00
6:55 AM,53.6,51.8,94,30.03,0.5,Calm,Calm,-,N/A,,Unknown,0,2013-09-24 11:55:00
7:15 AM,55.4,53.6,94,30.03,7.0,Calm,Calm,-,N/A,,Clear,0,2013-09-24 12:15:00
7:35 AM,59.0,55.4,88,30.02,10.0,Calm,Calm,-,N/A,,Clear,0,2013-09-24 12:35:00
7:55 AM,64.4,57.2,77,30.02,10.0,Calm,Calm,-,N/A,,Clear,0,2013-09-24 12:55:00
8:15 AM,66.2,59.0,78,30.02,10.0,SE,4.6,-,N/A,,Clear,130,2013-09-24 13:15:00
8:35 AM,66.2,59.0,78,30.02,10.0,SE,3.5,-,N/A,,Scattered Clouds,130,2013-09-24 13:35:00
8:55 AM,68.0,60.8,78,30.02,10.0,SE,6.9,-,N/A,,Mostly Cloudy,140,2013-09-24 13:55:00
9:15 AM,69.8,60.8,73,30.02,10.0,SSE,6.9,-,N/A,,Mostly Cloudy,150,2013-09-24 14:15:00
9:35 AM,69.8,60.8,73,30.02,10.0,SSE,9.2,-,N/A,,Scattered Clouds,150,2013-09-24 14:35:00
9:55 AM,71.6,60.8,69,30.02,10.0,SE,6.9,-,N/A,,Scattered Clouds,140,2013-09-24 14:55:00
10:15 AM,71.6,62.6,73,30.03,10.0,South,6.9,-,N/A,,Mostly Cloudy,180,2013-09-24 15:15:00
10:35 AM,71.6,62.6,73,30.02,10.0,SSE,9.2,-,N/A,,Overcast,150,2013-09-24 15:35:00
10:55 AM,73.4,62.6,69,30.02,10.0,SSE,4.6,-,N/A,,Scattered Clouds,150,2013-09-24 15:55:00
11:15 AM,73.4,62.6,69,30.01,10.0,SE,9.2,-,N/A,,Mostly Cloudy,130,2013-09-24 16:15:00
11:35 AM,71.6,62.6,73,30.00,10.0,ESE,8.1,-,N/A,,Mostly Cloudy,120,2013-09-24 16:35:00
11:55 AM,73.4,62.6,69,30.00,10.0,ESE,8.1,-,N/A,,Mostly Cloudy,110,2013-09-24 16:55:00
12:15 PM,73.4,62.6,69,29.99,10.0,SSE,10.4,-,N/A,,Mostly Cloudy,150,2013-09-24 17:15:00
12:55 PM,73.4,62.6,69,29.98,10.0,SE,11.5,-,N/A,,Mostly Cloudy,130,2013-09-24 17:55:00
1:15 PM,73.4,62.6,69,29.98,9.0,ESE,8.1,-,N/A,,Mostly Cloudy,120,2013-09-24 18:15:00
1:35 PM,73.4,62.6,69,29.97,10.0,ESE,9.2,-,N/A,,Mostly Cloudy,120,2013-09-24 18:35:00
1:55 PM,73.4,62.6,69,29.96,10.0,SE,9.2,-,N/A,,Mostly Cloudy,130,2013-09-24 18:55:00
2:15 PM,73.4,62.6,69,29.95,10.0,SE,9.2,-,N/A,,Scattered Clouds,130,2013-09-24 19:15:00
2:35 PM,73.4,62.6,69,29.95,10.0,SE,9.2,-,N/A,,Scattered Clouds,140,2013-09-24 19:35:00
2:55 PM,73.4,62.6,69,29.95,10.0,Variable,6.9,-,N/A,,Mostly Cloudy,0,2013-09-24 19:55:00
3:15 PM,71.6,62.6,73,29.94,10.0,SE,9.2,-,N/A,,Scattered Clouds,140,2013-09-24 20:15:00
3:35 PM,71.6,62.6,73,29.93,10.0,SE,11.5,-,N/A,,Partly Cloudy,140,2013-09-24 20:35:00
3:55 PM,71.6,62.6,73,29.93,10.0,SE,8.1,-,N/A,,Mostly Cloudy,140,2013-09-24 20:55:00
4:15 PM,71.6,62.6,73,29.94,10.0,SE,5.8,-,N/A,,Overcast,140,2013-09-24 21:15:00
4:35 PM,69.8,62.6,78,29.93,10.0,SE,6.9,-,N/A,,Overcast,140,2013-09-24 21:35:00
4:55 PM,69.8,62.6,78,29.93,10.0,ESE,8.1,-,N/A,,Overcast,110,2013-09-24 21:55:00
5:15 PM,69.8,62.6,78,29.93,10.0,SE,5.8,-,N/A,,Overcast,130,2013-09-24 22:15:00
5:35 PM,69.8,62.6,78,29.93,10.0,SE,5.8,-,N/A,,Overcast,130,2013-09-24 22:35:00
5:55 PM,69.8,62.6,78,29.92,10.0,SE,5.8,-,N/A,,Overcast,130,2013-09-24 22:55:00
6:15 PM,69.8,62.6,78,29.91,10.0,East,5.8,-,N/A,,Overcast,90,2013-09-24 23:15:00
6:35 PM,68.0,62.6,83,29.91,10.0,ESE,6.9,-,N/A,,Overcast,120,2013-09-24 23:35:00
6:55 PM,68.0,62.6,83,29.91,10.0,SE,6.9,-,N/A,,Overcast,140,2013-09-24 23:55:00
7:15 PM,68.0,62.6,83,29.91,10.0,SE,6.9,-,N/A,,Overcast,130,2013-09-25 00:15:00
7:35 PM,68.0,62.6,83,29.91,10.0,SE,8.1,-,N/A,,Overcast,140,2013-09-25 00:35:00
7:55 PM,66.2,62.6,88,29.92,10.0,ESE,6.9,-,N/A,,Overcast,120,2013-09-25 00:55:00
8:15 PM,66.2,62.6,88,29.92,10.0,SE,8.1,-,N/A,,Overcast,140,2013-09-25 01:15:00
8:35 PM,66.2,62.6,88,29.92,10.0,SSE,6.9,-,N/A,,Overcast,150,2013-09-25 01:35:00
8:55 PM,66.2,62.6,88,29.92,10.0,SE,5.8,-,N/A,,Overcast,130,2013-09-25 01:55:00
9:15 PM,66.2,62.6,88,29.91,10.0,SE,6.9,-,N/A,,Overcast,130,2013-09-25 02:15:00
9:35 PM,66.2,62.6,88,29.91,10.0,SSE,4.6,-,N/A,,Overcast,150,2013-09-25 02:35:00
9:55 PM,66.2,62.6,88,29.91,10.0,SSE,6.9,-,N/A,,Overcast,150,2013-09-25 02:55:00
10:15 PM,66.2,62.6,88,29.91,10.0,South,5.8,-,N/A,,Overcast,170,2013-09-25 03:15:00
10:35 PM,66.2,62.6,88,29.91,10.0,SSE,4.6,-,N/A,,Overcast,160,2013-09-25 03:35:00
10:55 PM,66.2,62.6,88,29.90,8.0,SE,4.6,-,N/A,,Overcast,140,2013-09-25 03:55:00
11:15 PM,64.4,62.6,94,29.90,10.0,SSE,3.5,-,N/A,,Overcast,150,2013-09-25 04:15:00
11:35 PM,64.4,62.6,94,29.90,10.0,SSE,4.6,-,N/A,,Overcast,150,2013-09-25 04:35:00
11:55 PM,64.4,62.6,94,29.89,9.0,Calm,Calm,-,N/A,,Overcast,0,2013-09-25 04:55:00